Time;durP1;ratioP1;P1;durP2;ratioP2;P2;SDS_P1;SDS_P2;PMS_P1;PMS_P2;Temp;Humidity;BMP_temperature;BMP_pressure;BME280_temperature;BME280_humidity;BME280_pressure;Samples;Min_cycle;Max_cycle;Signal;HPM_P1;HPM_P2
2024/01/24 00:02:06;;;;;;;;;0.00;0.00;;;;;;;;5074517;27;28898;-79
2024/01/24 00:04:31;;;;;;;;;0.00;0.00;;;;;;;;5084377;27;28600;-79
2024/01/24 00:06:56;;;;;;;;;0.00;0.00;;;;;;;;5086385;27;28609;-77
2024/01/24 00:09:22;;;;;;;;;0.00;0.00;;;;;;;;5076775;27;29719;-78
2024/01/24 00:11:47;;;;;;;;;0.00;0.00;;;;;;;;5086204;28;30256;-77
2024/01/24 00:14:12;;;;;;;;;0.00;0.00;;;;;;;;5081938;28;28766;-78
2024/01/24 00:16:38;;;;;;;;;1.75;0.00;;;;;;;;5088758;27;28597;-77
2024/01/24 00:19:03;;;;;;;;;0.00;0.00;;;;;;;;5080683;27;28897;-78
2024/01/24 00:21:28;;;;;;;;;0.00;0.00;;;;;;;;5081918;27;28549;-77
2024/01/24 00:23:53;;;;;;;;;0.00;0.00;;;;;;;;5089890;27;28495;-79
2024/01/24 00:26:18;;;;;;;;;1.00;0.00;;;;;;;;5084912;27;28932;-79
2024/01/24 00:28:44;;;;;;;;;0.00;0.00;;;;;;;;5083875;27;28474;-77
2024/01/24 00:31:09;;;;;;;;;0.00;0.00;;;;;;;;5088617;27;28357;-76
2024/01/24 00:33:34;;;;;;;;;0.00;0.00;;;;;;;;5089467;27;28678;-78
2024/01/24 00:35:59;;;;;;;;;0.00;0.00;;;;;;;;5082473;27;28670;-77
2024/01/24 00:38:25;;;;;;;;;0.00;0.00;;;;;;;;5084155;27;30046;-77
2024/01/24 00:40:51;;;;;;;;;0.00;0.00;;;;;;;;5087948;27;28602;-76
2024/01/24 00:43:16;;;;;;;;;0.00;0.00;;;;;;;;5090530;27;28449;-78
2024/01/24 00:45:41;;;;;;;;;1.00;0.00;;;;;;;;5090963;27;28887;-77
2024/01/24 00:48:07;;;;;;;;;0.00;0.00;;;;;;;;5076543;27;29521;-76
2024/01/24 00:50:34;;;;;;;;;0.00;0.00;;;;;;;;5086809;27;28490;-75
2024/01/24 00:53:00;;;;;;;;;0.00;0.00;;;;;;;;5092903;27;28559;-76
2024/01/24 00:55:27;;;;;;;;;0.00;0.00;;;;;;;;5088122;27;28678;-77
2024/01/24 00:57:52;;;;;;;;;0.00;0.00;;;;;;;;5089608;27;29984;-77
2024/01/24 01:00:17;;;;;;;;;0.00;0.00;;;;;;;;5084498;27;28602;-75
2024/01/24 01:02:43;;;;;;;;;0.00;0.00;;;;;;;;5086904;27;29450;-78
2024/01/24 01:05:08;;;;;;;;;0.50;0.00;;;;;;;;5081635;27;28341;-78
2024/01/24 01:07:33;;;;;;;;;0.00;0.00;;;;;;;;5079949;27;29393;-76
2024/01/24 01:09:58;;;;;;;;;0.00;0.00;;;;;;;;5075137;27;28551;-78
2024/01/24 01:12:24;;;;;;;;;0.00;0.00;;;;;;;;5094609;27;28769;-78
2024/01/24 01:14:49;;;;;;;;;0.00;0.00;;;;;;;;5088254;27;28486;-76
2024/01/24 01:17:14;;;;;;;;;0.00;0.00;;;;;;;;5087504;27;29848;-76
2024/01/24 01:19:39;;;;;;;;;0.00;0.00;;;;;;;;5085634;27;28501;-77
2024/01/24 01:22:05;;;;;;;;;0.00;0.00;;;;;;;;5082894;27;28679;-78
2024/01/24 01:24:30;;;;;;;;;0.00;0.00;;;;;;;;5084296;27;28740;-77
2024/01/24 01:26:55;;;;;;;;;0.67;0.00;;;;;;;;5099237;27;29467;-78
2024/01/24 01:29:20;;;;;;;;;0.00;0.00;;;;;;;;5089697;27;28368;-77
2024/01/24 01:31:46;;;;;;;;;0.00;0.00;;;;;;;;5078453;27;28398;-76
2024/01/24 01:34:11;;;;;;;;;0.00;0.00;;;;;;;;5075291;27;28519;-75
2024/01/24 01:36:36;;;;;;;;;0.00;0.00;;;;;;;;5087021;27;30211;-78
2024/01/24 01:39:03;;;;;;;;;0.67;0.00;;;;;;;;5079733;27;28639;-78
2024/01/24 01:41:29;;;;;;;;;0.00;0.00;;;;;;;;5083275;27;28827;-78
2024/01/24 01:43:54;;;;;;;;;0.00;0.00;;;;;;;;5079159;27;29080;-78
2024/01/24 01:46:21;;;;;;;;;0.00;0.00;;;;;;;;5089212;27;29712;-77
2024/01/24 01:48:49;;;;;;;;;0.00;0.00;;;;;;;;5085450;27;28705;-78
2024/01/24 01:51:15;;;;;;;;;0.00;0.00;;;;;;;;5080502;27;28504;-78
2024/01/24 01:53:40;;;;;;;;;0.00;0.00;;;;;;;;5079333;27;28476;-79
2024/01/24 01:56:10;;;;;;;;;0.00;0.00;;;;;;;;5077270;27;29150;-76
2024/01/24 01:58:36;;;;;;;;;0.00;0.00;;;;;;;;5080915;27;28388;-77
2024/01/24 02:01:01;;;;;;;;;0.00;0.00;;;;;;;;5079493;27;28451;-79
2024/01/24 02:03:27;;;;;;;;;0.00;0.00;;;;;;;;5081538;27;28693;-80
2024/01/24 02:05:52;;;;;;;;;0.00;0.00;;;;;;;;5093871;27;28525;-79
2024/01/24 02:08:17;;;;;;;;;0.00;0.00;;;;;;;;5099767;27;28748;-79
2024/01/24 02:10:43;;;;;;;;;0.00;0.00;;;;;;;;5084655;27;28526;-80
2024/01/24 02:13:08;;;;;;;;;0.00;0.00;;;;;;;;5088800;27;28424;-79
2024/01/24 02:15:33;;;;;;;;;0.00;0.00;;;;;;;;5086995;27;28448;-76
2024/01/24 02:17:58;;;;;;;;;0.00;0.00;;;;;;;;5081912;27;28368;-77
2024/01/24 02:20:23;;;;;;;;;0.00;0.00;;;;;;;;5083244;28;28823;-75
2024/01/24 02:22:49;;;;;;;;;0.00;0.00;;;;;;;;5085292;27;28752;-77
2024/01/24 02:25:14;;;;;;;;;0.00;0.00;;;;;;;;5078492;27;29016;-78
2024/01/24 02:27:39;;;;;;;;;0.00;0.00;;;;;;;;5089756;27;28316;-78
2024/01/24 02:30:05;;;;;;;;;0.00;0.00;;;;;;;;5089980;27;28696;-77
2024/01/24 02:32:30;;;;;;;;;1.00;0.00;;;;;;;;5080338;27;28684;-76
2024/01/24 02:34:55;;;;;;;;;0.00;0.00;;;;;;;;5083494;27;28934;-75
2024/01/24 02:37:22;;;;;;;;;0.00;0.00;;;;;;;;5084638;27;28997;-78
2024/01/24 02:39:47;;;;;;;;;0.00;0.00;;;;;;;;5087059;27;28385;-77
2024/01/24 02:42:13;;;;;;;;;0.00;0.00;;;;;;;;5079211;27;28775;-77
2024/01/24 02:44:38;;;;;;;;;0.00;0.00;;;;;;;;5078132;27;30550;-77
2024/01/24 02:47:03;;;;;;;;;0.00;0.00;;;;;;;;5085591;27;28528;-78
2024/01/24 02:49:29;;;;;;;;;0.00;0.00;;;;;;;;5083336;27;28755;-77
2024/01/24 02:51:54;;;;;;;;;0.00;0.00;;;;;;;;5073787;27;28532;-76
2024/01/24 02:54:19;;;;;;;;;0.00;0.00;;;;;;;;5091371;27;28407;-81
2024/01/24 02:56:44;;;;;;;;;0.00;0.00;;;;;;;;5084132;28;28470;-80
2024/01/24 02:59:10;;;;;;;;;0.00;0.00;;;;;;;;5078012;27;28520;-78
2024/01/24 03:01:35;;;;;;;;;0.00;0.00;;;;;;;;5078415;27;28841;-77
2024/01/24 03:04:01;;;;;;;;;0.00;0.00;;;;;;;;5078778;27;28790;-78
2024/01/24 03:06:26;;;;;;;;;0.00;0.00;;;;;;;;5084571;27;28596;-77
2024/01/24 03:08:55;;;;;;;;;0.00;0.00;;;;;;;;5085786;27;28807;-77
2024/01/24 03:11:20;;;;;;;;;0.00;0.00;;;;;;;;5083169;27;30057;-80
2024/01/24 03:13:45;;;;;;;;;0.00;0.00;;;;;;;;5089473;27;28593;-81
2024/01/24 03:16:11;;;;;;;;;0.00;0.00;;;;;;;;5075509;27;28528;-79
2024/01/24 03:18:37;;;;;;;;;0.00;0.00;;;;;;;;5087859;27;28590;-78
2024/01/24 03:21:03;;;;;;;;;0.00;0.00;;;;;;;;5084339;27;29650;-78
2024/01/24 03:23:30;;;;;;;;;0.00;0.00;;;;;;;;5087417;27;28808;-78
2024/01/24 03:25:55;;;;;;;;;0.00;0.00;;;;;;;;5079745;27;28756;-77
2024/01/24 03:28:20;;;;;;;;;0.00;0.00;;;;;;;;5076534;27;28752;-77
2024/01/24 03:30:46;;;;;;;;;0.00;0.00;;;;;;;;5082566;27;28858;-76
2024/01/24 03:33:11;;;;;;;;;1.00;0.00;;;;;;;;5078016;27;28493;-77
2024/01/24 03:35:36;;;;;;;;;0.00;0.00;;;;;;;;5086192;27;28948;-76
2024/01/24 03:38:02;;;;;;;;;0.00;0.00;;;;;;;;5081325;27;28604;-76
2024/01/24 03:40:27;;;;;;;;;0.00;0.00;;;;;;;;5083574;27;29102;-77
2024/01/24 03:42:52;;;;;;;;;0.00;0.00;;;;;;;;5091862;27;28616;-79
2024/01/24 03:45:18;;;;;;;;;0.00;0.00;;;;;;;;5090961;27;28772;-79
2024/01/24 03:47:44;;;;;;;;;0.00;0.00;;;;;;;;5092621;27;28572;-76
2024/01/24 03:50:10;;;;;;;;;0.00;0.00;;;;;;;;5092789;27;28533;-77
2024/01/24 03:52:35;;;;;;;;;0.00;0.00;;;;;;;;5087892;27;28400;-77
2024/01/24 03:55:00;;;;;;;;;0.00;0.00;;;;;;;;5082960;27;28769;-81
2024/01/24 03:57:25;;;;;;;;;0.00;0.00;;;;;;;;5083506;27;28556;-78
2024/01/24 03:59:51;;;;;;;;;0.00;0.00;;;;;;;;5085729;27;28829;-79
2024/01/24 04:02:16;;;;;;;;;0.00;0.00;;;;;;;;5080099;27;28316;-78
2024/01/24 04:04:41;;;;;;;;;0.00;0.00;;;;;;;;5085572;27;28501;-78
2024/01/24 04:07:06;;;;;;;;;0.00;0.00;;;;;;;;5086240;27;28470;-76
2024/01/24 04:09:32;;;;;;;;;0.00;0.00;;;;;;;;5088722;27;28617;-77
2024/01/24 04:11:57;;;;;;;;;0.00;0.00;;;;;;;;5095306;27;28442;-76
2024/01/24 04:14:23;;;;;;;;;0.00;0.00;;;;;;;;5087574;27;28696;-78
2024/01/24 04:16:48;;;;;;;;;0.00;0.00;;;;;;;;5080937;27;29098;-78
2024/01/24 04:19:13;;;;;;;;;0.00;0.00;;;;;;;;5084935;27;29051;-78
2024/01/24 04:21:40;;;;;;;;;0.00;0.00;;;;;;;;5075798;27;28644;-76
2024/01/24 04:24:05;;;;;;;;;0.00;0.00;;;;;;;;5085659;28;28402;-78
2024/01/24 04:26:31;;;;;;;;;0.00;0.00;;;;;;;;5083968;27;28532;-79
2024/01/24 04:28:56;;;;;;;;;0.00;0.00;;;;;;;;5081146;27;28629;-78
2024/01/24 04:31:21;;;;;;;;;0.00;0.00;;;;;;;;5081001;27;28423;-79
2024/01/24 04:33:46;;;;;;;;;0.00;0.00;;;;;;;;5087678;27;28514;-79
2024/01/24 04:36:12;;;;;;;;;0.00;0.00;;;;;;;;5094654;27;29138;-78
2024/01/24 04:38:38;;;;;;;;;0.00;0.00;;;;;;;;5116899;27;29212;-77
2024/01/24 04:41:03;;;;;;;;;0.00;0.00;;;;;;;;5083113;27;28726;-78
2024/01/24 04:43:28;;;;;;;;;0.00;0.00;;;;;;;;5090050;27;28827;-78
2024/01/24 04:45:54;;;;;;;;;0.00;0.00;;;;;;;;5082118;27;28966;-80
2024/01/24 04:48:19;;;;;;;;;0.00;0.00;;;;;;;;5090961;27;28901;-81
2024/01/24 04:50:44;;;;;;;;;0.00;0.00;;;;;;;;5088377;27;29780;-78
2024/01/24 04:53:09;;;;;;;;;0.00;0.00;;;;;;;;5081686;27;28452;-77
2024/01/24 04:55:35;;;;;;;;;0.00;0.00;;;;;;;;5084147;27;28376;-77
2024/01/24 04:58:00;;;;;;;;;0.00;0.00;;;;;;;;5078761;27;28811;-79
2024/01/24 05:00:26;;;;;;;;;0.00;0.00;;;;;;;;5083182;27;30691;-80
2024/01/24 05:02:51;;;;;;;;;0.00;0.00;;;;;;;;5112826;27;28782;-79
2024/01/24 05:05:16;;;;;;;;;0.00;0.00;;;;;;;;5081205;27;28431;-77
2024/01/24 05:07:41;;;;;;;;;0.00;0.00;;;;;;;;5085635;27;30949;-77
2024/01/24 05:10:07;;;;;;;;;0.00;0.00;;;;;;;;5091686;27;28468;-78
2024/01/24 05:12:32;;;;;;;;;0.00;0.00;;;;;;;;5076236;27;28368;-79
2024/01/24 05:14:57;;;;;;;;;0.00;0.00;;;;;;;;5081100;27;28578;-79
2024/01/24 05:17:23;;;;;;;;;0.75;0.00;;;;;;;;5080504;27;29434;-78
2024/01/24 05:19:48;;;;;;;;;0.00;0.00;;;;;;;;5089223;27;28742;-77
2024/01/24 05:22:13;;;;;;;;;0.00;0.00;;;;;;;;5085760;27;29026;-78
2024/01/24 05:24:42;;;;;;;;;0.00;0.00;;;;;;;;5087808;27;28609;-77
2024/01/24 05:27:07;;;;;;;;;0.00;0.00;;;;;;;;5078468;27;30301;-77
2024/01/24 05:29:33;;;;;;;;;0.33;0.00;;;;;;;;5077236;27;29186;-76
2024/01/24 05:31:58;;;;;;;;;0.00;0.00;;;;;;;;5075679;27;28766;-78
2024/01/24 05:34:23;;;;;;;;;0.00;0.00;;;;;;;;5080564;27;28717;-79
2024/01/24 05:36:48;;;;;;;;;0.00;0.00;;;;;;;;5086366;27;28531;-78
2024/01/24 05:39:15;;;;;;;;;0.00;0.00;;;;;;;;5088726;27;28518;-77
2024/01/24 05:41:40;;;;;;;;;0.00;0.00;;;;;;;;5077256;27;28773;-80
2024/01/24 05:44:06;;;;;;;;;0.00;0.00;;;;;;;;5074519;27;28795;-81
2024/01/24 05:46:31;;;;;;;;;0.00;0.00;;;;;;;;5086198;27;28784;-76
2024/01/24 05:48:56;;;;;;;;;0.00;0.00;;;;;;;;5081844;27;28559;-78
2024/01/24 05:51:21;;;;;;;;;0.00;0.00;;;;;;;;5090269;27;28807;-77
2024/01/24 05:53:46;;;;;;;;;0.00;0.00;;;;;;;;5085184;27;28381;-77
2024/01/24 05:56:12;;;;;;;;;1.00;0.00;;;;;;;;5084702;27;28491;-76
2024/01/24 05:58:37;;;;;;;;;0.00;0.00;;;;;;;;5089860;27;29157;-77
2024/01/24 06:01:03;;;;;;;;;0.00;0.00;;;;;;;;5089985;27;28426;-78
2024/01/24 06:03:28;;;;;;;;;0.00;0.00;;;;;;;;5085410;27;28592;-79
2024/01/24 06:05:53;;;;;;;;;0.00;0.00;;;;;;;;5093730;27;29208;-78
2024/01/24 06:08:18;;;;;;;;;0.00;0.00;;;;;;;;5082685;27;28946;-78
2024/01/24 06:10:44;;;;;;;;;0.00;0.00;;;;;;;;5096636;27;28897;-82
2024/01/24 06:13:09;;;;;;;;;0.00;0.00;;;;;;;;5097569;27;28431;-83
2024/01/24 06:15:34;;;;;;;;;0.00;0.00;;;;;;;;5090306;27;28546;-83
2024/01/24 06:18:00;;;;;;;;;0.00;0.00;;;;;;;;5102937;27;28439;-73
2024/01/24 06:20:25;;;;;;;;;0.33;0.00;;;;;;;;5089015;27;28471;-71
2024/01/24 06:22:50;;;;;;;;;0.00;0.00;;;;;;;;5079741;28;28579;-72
2024/01/24 06:25:16;;;;;;;;;0.00;0.00;;;;;;;;5077888;27;28842;-75
2024/01/24 06:27:42;;;;;;;;;0.00;0.00;;;;;;;;5082396;27;28506;-73
2024/01/24 06:30:08;;;;;;;;;0.00;0.00;;;;;;;;5084877;28;28743;-73
2024/01/24 06:32:34;;;;;;;;;0.50;0.00;;;;;;;;5085767;27;28458;-73
2024/01/24 06:34:59;;;;;;;;;0.00;0.00;;;;;;;;5085293;27;28596;-74
2024/01/24 06:37:24;;;;;;;;;1.00;0.00;;;;;;;;5087754;27;29345;-75
2024/01/24 06:39:50;;;;;;;;;0.00;0.00;;;;;;;;5079410;27;28380;-73
2024/01/24 06:42:16;;;;;;;;;0.00;0.00;;;;;;;;5087033;28;29776;-74
2024/01/24 06:44:41;;;;;;;;;1.00;0.00;;;;;;;;5086073;27;28696;-75
2024/01/24 06:47:06;;;;;;;;;0.00;0.00;;;;;;;;5081091;27;28759;-71
2024/01/24 06:49:32;;;;;;;;;0.00;0.00;;;;;;;;5087678;27;28647;-70
2024/01/24 06:51:57;;;;;;;;;1.33;0.00;;;;;;;;5076759;27;28401;-72
2024/01/24 06:54:22;;;;;;;;;0.00;0.00;;;;;;;;5077437;27;28985;-71
2024/01/24 06:56:47;;;;;;;;;0.00;0.00;;;;;;;;5081299;27;29085;-71
2024/01/24 06:59:13;;;;;;;;;0.00;0.00;;;;;;;;5087358;27;28384;-72
2024/01/24 07:01:39;;;;;;;;;2.33;0.00;;;;;;;;5115523;27;28579;-73
2024/01/24 07:04:05;;;;;;;;;0.00;0.00;;;;;;;;5079876;27;28471;-72
2024/01/24 07:06:31;;;;;;;;;0.67;0.00;;;;;;;;5089519;27;28633;-72
2024/01/24 07:08:56;;;;;;;;;0.67;0.00;;;;;;;;5088388;28;29297;-73
2024/01/24 07:11:21;;;;;;;;;0.00;0.00;;;;;;;;5086303;27;28582;-74
2024/01/24 07:13:47;;;;;;;;;0.33;0.33;;;;;;;;5087760;27;28950;-76
2024/01/24 07:16:12;;;;;;;;;0.67;0.67;;;;;;;;5086702;27;28372;-74
2024/01/24 07:18:37;;;;;;;;;1.00;0.00;;;;;;;;5085780;27;28439;-73
2024/01/24 07:21:03;;;;;;;;;0.00;0.00;;;;;;;;5111915;27;28912;-73
2024/01/24 07:23:28;;;;;;;;;0.00;0.00;;;;;;;;5090464;27;28958;-73
2024/01/24 07:25:53;;;;;;;;;0.00;0.00;;;;;;;;5083824;27;29484;-78
2024/01/24 07:28:18;;;;;;;;;0.00;0.00;;;;;;;;5081489;27;28556;-72
2024/01/24 07:30:44;;;;;;;;;1.00;0.67;;;;;;;;5090380;27;28471;-71
2024/01/24 07:33:09;;;;;;;;;0.67;0.00;;;;;;;;5087876;27;28736;-71
2024/01/24 07:35:41;;;;;;;;;1.00;0.67;;;;;;;;5087951;28;28592;-72
2024/01/24 07:38:06;;;;;;;;;0.25;0.25;;;;;;;;5088967;27;28790;-73
2024/01/24 07:40:31;;;;;;;;;1.00;1.00;;;;;;;;5087987;28;28550;-73
2024/01/24 07:42:57;;;;;;;;;1.67;0.00;;;;;;;;5089724;28;28613;-72
2024/01/24 07:45:22;;;;;;;;;1.67;0.00;;;;;;;;5089060;28;30293;-72
2024/01/24 07:47:49;;;;;;;;;0.67;0.67;;;;;;;;5088271;28;28755;-73
2024/01/24 07:50:15;;;;;;;;;0.67;0.67;;;;;;;;5088720;27;28539;-74
2024/01/24 07:52:40;;;;;;;;;0.33;0.33;;;;;;;;5085675;27;28580;-75
2024/01/24 07:55:06;;;;;;;;;0.67;0.67;;;;;;;;5084492;27;29101;-72
2024/01/24 07:57:31;;;;;;;;;0.67;0.67;;;;;;;;5078975;27;29350;-73
2024/01/24 07:59:57;;;;;;;;;0.33;0.00;;;;;;;;5079595;27;28416;-72
2024/01/24 08:02:22;;;;;;;;;0.67;0.67;;;;;;;;5089354;28;28916;-73
2024/01/24 08:04:47;;;;;;;;;0.33;0.00;;;;;;;;5091761;27;28427;-72
2024/01/24 08:07:12;;;;;;;;;3.67;1.67;;;;;;;;5080313;27;28774;-73
2024/01/24 08:09:38;;;;;;;;;3.00;3.00;;;;;;;;5080691;27;28458;-74
2024/01/24 08:12:03;;;;;;;;;3.67;2.00;;;;;;;;5074694;28;28716;-73
2024/01/24 08:14:28;;;;;;;;;1.67;1.33;;;;;;;;5079755;27;29075;-73
2024/01/24 08:17:12;;;;;;;;;2.67;1.67;;;;;;;;5088783;27;28334;-72
2024/01/24 08:19:38;;;;;;;;;4.33;2.00;;;;;;;;5080436;28;28865;-70
2024/01/24 08:22:03;;;;;;;;;1.67;0.00;;;;;;;;5087261;27;28596;-72
2024/01/24 08:24:29;;;;;;;;;3.33;1.00;;;;;;;;5090237;28;28736;-71
2024/01/24 08:26:54;;;;;;;;;1.00;1.00;;;;;;;;5075851;27;28529;-72
2024/01/24 08:29:20;;;;;;;;;1.00;0.67;;;;;;;;5100255;27;28845;-70
2024/01/24 08:31:45;;;;;;;;;8.00;2.33;;;;;;;;5074933;28;28436;-71
2024/01/24 08:34:10;;;;;;;;;5.00;2.00;;;;;;;;5088872;27;28420;-71
2024/01/24 08:36:36;;;;;;;;;2.00;2.00;;;;;;;;5089019;27;28394;-71
2024/01/24 08:39:03;;;;;;;;;4.33;0.00;;;;;;;;5085475;27;29011;-70
2024/01/24 08:41:28;;;;;;;;;4.50;1.00;;;;;;;;5088851;28;28649;-71
2024/01/24 08:43:57;;;;;;;;;1.33;0.33;;;;;;;;5089280;27;28509;-70
2024/01/24 08:46:22;;;;;;;;;2.50;1.75;;;;;;;;5082873;27;28458;-71
2024/01/24 08:48:47;;;;;;;;;6.00;1.33;;;;;;;;5082648;27;28887;-71
2024/01/24 08:51:12;;;;;;;;;2.67;1.33;;;;;;;;5086698;27;28912;-70
2024/01/24 08:53:37;;;;;;;;;3.33;1.67;;;;;;;;5088605;27;28659;-70
2024/01/24 08:56:03;;;;;;;;;4.33;3.00;;;;;;;;5088918;27;28982;-69
2024/01/24 08:58:28;;;;;;;;;2.67;2.67;;;;;;;;5089076;27;28740;-68
2024/01/24 09:00:53;;;;;;;;;2.33;2.33;;;;;;;;5089379;27;28357;-71
2024/01/24 09:03:19;;;;;;;;;4.67;3.00;;;;;;;;5074021;27;28746;-70
2024/01/24 09:05:44;;;;;;;;;2.00;1.00;;;;;;;;5083876;27;28793;-70
2024/01/24 09:08:09;;;;;;;;;4.00;1.67;;;;;;;;5088152;27;28415;-71
2024/01/24 09:10:36;;;;;;;;;3.00;2.00;;;;;;;;5086881;27;28715;-70
2024/01/24 09:13:01;;;;;;;;;4.75;3.00;;;;;;;;5087361;28;31119;-72
2024/01/24 09:15:26;;;;;;;;;3.33;2.00;;;;;;;;5085271;27;28580;-70
2024/01/24 09:17:51;;;;;;;;;4.00;2.00;;;;;;;;5088791;27;28572;-71
2024/01/24 09:20:16;;;;;;;;;4.00;2.33;;;;;;;;5082561;27;28612;-70
2024/01/24 09:22:43;;;;;;;;;0.67;0.00;;;;;;;;5083081;27;29540;-71
2024/01/24 09:25:08;;;;;;;;;2.80;2.00;;;;;;;;5089508;27;28824;-70
2024/01/24 09:27:33;;;;;;;;;5.67;2.00;;;;;;;;5087722;27;28607;-70
2024/01/24 09:29:58;;;;;;;;;3.67;2.67;;;;;;;;5077302;27;28838;-71
2024/01/24 09:32:24;;;;;;;;;5.00;2.00;;;;;;;;5096771;27;28504;-70
2024/01/24 09:34:49;;;;;;;;;4.50;2.25;;;;;;;;5087033;27;28780;-69
2024/01/24 09:37:14;;;;;;;;;2.00;2.00;;;;;;;;5089912;27;28548;-70
2024/01/24 09:39:40;;;;;;;;;2.00;1.00;;;;;;;;5100280;27;29201;-70
2024/01/24 09:42:10;;;;;;;;;2.25;2.25;;;;;;;;5087248;27;28417;-71
2024/01/24 09:44:36;;;;;;;;;3.60;3.60;;;;;;;;5089284;27;28462;-70
2024/01/24 09:47:01;;;;;;;;;4.75;2.00;;;;;;;;5084297;27;28474;-72
2024/01/24 09:49:28;;;;;;;;;2.50;2.00;;;;;;;;5087584;27;28560;-71
2024/01/24 09:51:54;;;;;;;;;6.20;1.80;;;;;;;;5086514;27;28467;-70
2024/01/24 09:54:19;;;;;;;;;2.50;2.00;;;;;;;;5095083;27;28542;-68
2024/01/24 09:56:44;;;;;;;;;5.25;2.25;;;;;;;;5091390;27;28889;-70
2024/01/24 09:59:10;;;;;;;;;4.50;1.50;;;;;;;;5092329;27;28592;-70
2024/01/24 10:01:38;;;;;;;;;4.00;1.20;;;;;;;;5089125;27;28533;-68
2024/01/24 10:04:03;;;;;;;;;6.80;3.00;;;;;;;;5092615;27;28508;-69
2024/01/24 10:06:29;;;;;;;;;4.25;1.25;;;;;;;;5091540;27;28771;-70
2024/01/24 10:08:58;;;;;;;;;4.75;2.25;;;;;;;;5097088;27;28858;-69
2024/01/24 10:11:24;;;;;;;;;4.20;2.60;;;;;;;;5092892;27;29891;-70
2024/01/24 10:13:49;;;;;;;;;2.50;1.50;;;;;;;;5097255;27;28531;-70
2024/01/24 10:16:14;;;;;;;;;4.75;3.25;;;;;;;;5089610;27;28404;-70
2024/01/24 10:18:44;;;;;;;;;6.00;2.50;;;;;;;;5087006;27;29336;-69
2024/01/24 10:21:12;;;;;;;;;6.80;2.80;;;;;;;;5087338;27;29175;-69
2024/01/24 10:23:37;;;;;;;;;5.80;2.80;;;;;;;;5090405;27;28847;-71
2024/01/24 10:26:02;;;;;;;;;4.75;3.25;;;;;;;;5100143;27;28521;-69
2024/01/24 10:28:27;;;;;;;;;2.75;1.50;;;;;;;;5098791;27;28961;-69
2024/01/24 10:30:53;;;;;;;;;3.75;1.25;;;;;;;;5086890;27;29308;-69
2024/01/24 10:33:18;;;;;;;;;5.00;5.00;;;;;;;;5085714;27;28483;-70
2024/01/24 10:35:43;;;;;;;;;6.25;2.00;;;;;;;;5121844;27;28486;-69
2024/01/24 10:38:12;;;;;;;;;6.00;4.00;;;;;;;;5090481;27;28496;-70
2024/01/24 10:40:41;;;;;;;;;4.60;4.60;;;;;;;;5108463;27;30954;-72
2024/01/24 10:43:13;;;;;;;;;3.20;2.60;;;;;;;;5090964;27;28735;-70
2024/01/24 10:45:43;;;;;;;;;4.00;1.20;;;;;;;;5090345;27;28808;-71
2024/01/24 10:48:08;;;;;;;;;3.40;2.00;;;;;;;;5088381;27;28593;-70
2024/01/24 10:50:34;;;;;;;;;5.00;4.00;;;;;;;;5092021;27;28439;-71
2024/01/24 10:53:01;;;;;;;;;5.80;2.80;;;;;;;;5084142;27;28493;-70
2024/01/24 10:55:26;;;;;;;;;4.80;3.60;;;;;;;;5083960;27;28618;-72
2024/01/24 10:57:52;;;;;;;;;5.00;1.25;;;;;;;;5100211;27;28502;-71
2024/01/24 11:00:19;;;;;;;;;5.25;3.75;;;;;;;;5099613;27;29030;-72
2024/01/24 11:02:44;;;;;;;;;7.00;3.00;;;;;;;;5095384;27;28688;-72
2024/01/24 11:05:17;;;;;;;;;2.25;2.25;;;;;;;;5090538;27;28965;-71
2024/01/24 11:08:05;;;;;;;;;6.80;2.00;;;;;;;;5092474;27;30565;-73
2024/01/24 11:10:39;;;;;;;;;7.25;5.00;;;;;;;;5080715;27;29043;-71
2024/01/24 11:13:05;;;;;;;;;7.25;2.00;;;;;;;;5094001;27;28537;-71
2024/01/24 11:15:30;;;;;;;;;7.75;4.25;;;;;;;;5092415;27;29042;-73
2024/01/24 11:18:14;;;;;;;;;4.75;1.75;;;;;;;;5092680;27;28492;-72
2024/01/24 11:21:06;;;;;;;;;6.00;3.00;;;;;;;;5089611;27;28874;-72
2024/01/24 11:23:35;;;;;;;;;4.25;3.25;;;;;;;;5079146;27;28538;-76
2024/01/24 11:26:01;;;;;;;;;6.40;5.20;;;;;;;;5088142;27;28780;-70
2024/01/24 11:28:26;;;;;;;;;5.00;4.00;;;;;;;;5085991;28;28470;-71
2024/01/24 11:30:51;;;;;;;;;2.67;2.67;;;;;;;;5070522;28;28596;-72
2024/01/24 11:33:18;;;;;;;;;5.25;5.00;;;;;;;;5077633;28;28553;-73
2024/01/24 11:35:45;;;;;;;;;9.40;5.60;;;;;;;;5078197;28;28786;-70
2024/01/24 11:38:16;;;;;;;;;8.25;5.00;;;;;;;;5071902;28;28845;-71
2024/01/24 11:40:42;;;;;;;;;5.25;4.00;;;;;;;;5068374;27;28574;-73
2024/01/24 11:43:21;;;;;;;;;13.25;5.25;;;;;;;;5074190;28;28448;-71
2024/01/24 11:45:47;;;;;;;;;9.00;4.00;;;;;;;;5074124;28;28555;-70
2024/01/24 11:48:12;;;;;;;;;8.33;5.00;;;;;;;;5068974;28;28501;-72
2024/01/24 11:50:37;;;;;;;;;5.33;2.33;;;;;;;;5074007;27;28532;-69
2024/01/24 11:53:04;;;;;;;;;6.33;2.00;;;;;;;;5070432;28;28735;-69
2024/01/24 11:55:29;;;;;;;;;4.00;3.00;;;;;;;;5066110;28;28456;-71
2024/01/24 11:57:55;;;;;;;;;3.00;3.00;;;;;;;;5071400;28;28854;-69
2024/01/24 12:00:20;;;;;;;;;5.33;3.00;;;;;;;;5070234;28;28889;-68
2024/01/24 12:02:45;;;;;;;;;5.75;2.50;;;;;;;;5071375;28;28617;-72
2024/01/24 12:05:10;;;;;;;;;7.67;3.00;;;;;;;;5077222;28;28648;-70
2024/01/24 12:07:36;;;;;;;;;2.25;2.00;;;;;;;;5074947;28;28872;-71
2024/01/24 12:10:01;;;;;;;;;6.00;3.33;;;;;;;;5071350;28;31080;-70
2024/01/24 12:12:28;;;;;;;;;7.75;3.25;;;;;;;;5074396;28;28544;-71
2024/01/24 12:14:55;;;;;;;;;12.00;3.50;;;;;;;;5074380;28;28602;-70
2024/01/24 12:17:21;;;;;;;;;6.00;4.25;;;;;;;;5078118;28;28422;-70
2024/01/24 12:19:46;;;;;;;;;9.67;2.67;;;;;;;;5064419;28;29481;-72
2024/01/24 12:22:14;;;;;;;;;7.00;3.67;;;;;;;;5065611;28;28757;-71
2024/01/24 12:24:40;;;;;;;;;4.00;0.50;;;;;;;;5075765;28;28784;-73
2024/01/24 12:27:07;;;;;;;;;3.67;3.67;;;;;;;;5076007;28;29108;-71
2024/01/24 12:29:33;;;;;;;;;8.25;3.00;;;;;;;;5069825;28;28684;-69
2024/01/24 12:31:59;;;;;;;;;4.67;3.00;;;;;;;;5068822;28;28961;-69
2024/01/24 12:34:27;;;;;;;;;5.25;4.25;;;;;;;;5068346;28;29671;-70
2024/01/24 12:36:52;;;;;;;;;4.75;3.50;;;;;;;;5068742;28;29443;-71
2024/01/24 12:39:24;;;;;;;;;10.00;3.75;;;;;;;;5068639;28;29720;-71
2024/01/24 12:41:50;;;;;;;;;2.50;0.50;;;;;;;;5069052;28;28807;-69
2024/01/24 12:44:15;;;;;;;;;1.00;1.00;;;;;;;;5069320;28;28490;-70
2024/01/24 12:46:40;;;;;;;;;4.00;2.67;;;;;;;;5069321;28;28934;-70
2024/01/24 12:49:06;;;;;;;;;6.67;3.00;;;;;;;;5075580;28;28476;-71
2024/01/24 12:51:32;;;;;;;;;4.67;4.00;;;;;;;;5072533;28;28715;-69
2024/01/24 12:53:57;;;;;;;;;3.67;3.33;;;;;;;;5102746;27;28439;-69
2024/01/24 12:56:22;;;;;;;;;7.33;5.00;;;;;;;;5073588;28;29240;-71
2024/01/24 12:58:48;;;;;;;;;5.33;3.00;;;;;;;;5063473;28;30056;-70
2024/01/24 13:01:13;;;;;;;;;6.67;3.00;;;;;;;;5069718;28;28843;-71
2024/01/24 13:03:39;;;;;;;;;6.67;4.00;;;;;;;;5065477;28;29036;-71
2024/01/24 13:06:04;;;;;;;;;5.00;4.33;;;;;;;;5067607;28;29164;-70
2024/01/24 13:08:29;;;;;;;;;9.33;4.33;;;;;;;;5069462;28;30138;-73
2024/01/24 13:10:55;;;;;;;;;3.33;1.00;;;;;;;;5073155;28;29866;-71
2024/01/24 13:13:21;;;;;;;;;9.00;4.00;;;;;;;;5072789;28;28443;-73
2024/01/24 13:15:46;;;;;;;;;6.33;3.33;;;;;;;;5076121;28;29253;-71
2024/01/24 13:18:12;;;;;;;;;9.00;4.33;;;;;;;;5078365;28;30437;-71
2024/01/24 13:20:37;;;;;;;;;3.00;2.33;;;;;;;;5071779;28;28628;-73
2024/01/24 13:23:02;;;;;;;;;4.33;3.67;;;;;;;;5072169;28;28428;-71
2024/01/24 13:25:28;;;;;;;;;9.00;3.00;;;;;;;;5079592;28;28797;-73
2024/01/24 13:27:53;;;;;;;;;7.00;2.00;;;;;;;;5077865;28;28888;-69
2024/01/24 13:30:18;;;;;;;;;3.00;2.00;;;;;;;;5078054;28;28705;-70
2024/01/24 13:32:44;;;;;;;;;7.00;2.67;;;;;;;;5073675;28;28496;-72
2024/01/24 13:35:09;;;;;;;;;8.67;4.00;;;;;;;;5068344;28;28608;-70
2024/01/24 13:37:35;;;;;;;;;4.33;3.33;;;;;;;;5069758;28;28396;-71
2024/01/24 13:40:00;;;;;;;;;4.67;3.67;;;;;;;;5062990;28;28543;-72
2024/01/24 13:42:26;;;;;;;;;7.00;3.00;;;;;;;;5062093;28;28801;-72
2024/01/24 13:44:51;;;;;;;;;4.67;1.67;;;;;;;;5066990;28;28864;-70
2024/01/24 13:47:16;;;;;;;;;6.00;3.00;;;;;;;;5069919;28;28372;-72
2024/01/24 13:49:42;;;;;;;;;3.67;2.33;;;;;;;;5068670;28;28694;-70
2024/01/24 13:52:08;;;;;;;;;4.00;2.33;;;;;;;;5068895;28;28822;-70
2024/01/24 13:54:33;;;;;;;;;4.00;2.33;;;;;;;;5069800;28;29181;-70
2024/01/24 13:57:02;;;;;;;;;3.00;3.00;;;;;;;;5069469;28;28347;-73
2024/01/24 13:59:27;;;;;;;;;6.00;2.00;;;;;;;;5069839;28;28613;-70
2024/01/24 14:01:53;;;;;;;;;4.00;3.00;;;;;;;;5068610;28;28740;-75
2024/01/24 14:04:20;;;;;;;;;8.67;3.00;;;;;;;;5070551;28;29222;-74
2024/01/24 14:06:46;;;;;;;;;5.00;3.75;;;;;;;;5068439;28;28502;-71
2024/01/24 14:09:14;;;;;;;;;3.50;2.75;;;;;;;;5058185;28;28427;-71
2024/01/24 14:11:39;;;;;;;;;2.33;2.33;;;;;;;;5068460;28;28799;-69
2024/01/24 14:14:07;;;;;;;;;4.67;3.00;;;;;;;;5066616;28;28594;-70
2024/01/24 14:16:32;;;;;;;;;5.00;2.00;;;;;;;;5058506;28;29687;-70
2024/01/24 14:18:59;;;;;;;;;2.67;2.33;;;;;;;;5066439;28;28535;-70
2024/01/24 14:21:25;;;;;;;;;2.00;1.67;;;;;;;;5067843;28;28749;-70
2024/01/24 14:23:50;;;;;;;;;2.00;1.67;;;;;;;;5067294;28;28906;-70
2024/01/24 14:26:15;;;;;;;;;6.67;1.33;;;;;;;;5066562;28;28862;-69
2024/01/24 14:28:41;;;;;;;;;5.00;2.67;;;;;;;;5075799;28;28421;-71
2024/01/24 14:31:06;;;;;;;;;6.33;1.00;;;;;;;;5066307;28;28793;-72
2024/01/24 14:33:31;;;;;;;;;5.00;4.00;;;;;;;;5067364;28;29607;-70
2024/01/24 14:35:57;;;;;;;;;5.00;3.33;;;;;;;;5059767;28;30127;-70